• Join FlightAware (Why Join?)
  • Login
  • US Flag 
04:26PM EST


 

Airport Tracker/Info


-or-


 

Live Flight TrackerFlight Track Log ✈ EJA922 ✈ 19-Oct-2013 ✈ KICT - KICT

Flight Track Log - Related Links

Times and Time Zones

All times are in EDT time to prevent confusion due to time zone crossing. See the EJA922 flight status page for this flight to view local times or setup timezone preferences in your user account.

Time Position Orientation Groundspeed Altitude Reporting Facility
EDT Latitude Longitude Course Direction KTS MPH feet Rate Location/Type
10:26AM 37.6425 -97.4275 205° Southwest 172 198 2,100  Level Kansas City Center
10:27AM 37.6186 -97.4417 205° Southwest 202 232 3,600 3,000 Climbing Kansas City Center
10:27AM 37.6106 -97.4564 235° Southwest 221 254 4,400 1,440 Climbing Kansas City Center
10:28AM 37.5750 -97.5092 230° Southwest 266 306 5,100 840 Climbing Kansas City Center
10:28AM 37.5653 -97.5236 230° Southwest 250 288 5,300 3,480 Climbing Kansas City Center
10:29AM 37.5614 -97.6053 267° West 240 276 9,700 3,480 Climbing Kansas City Center
10:30AM 37.5908 -97.6900 294° West 258 297 12,500 2,040 Climbing Kansas City Center
10:31AM 37.6275 -97.8011 293° West 327 376 14,000 780 Climbing Kansas City Center
10:32AM 37.6681 -97.9247 293° West 356 410 14,100  Climbing Kansas City Center
10:33AM 37.7061 -98.0456 292° West 367 422 14,100 -60 Level Kansas City Center
10:34AM 37.7422 -98.1536 293° West 336 387 14,000 -60 Descending Kansas City Center
10:35AM 37.7794 -98.2969 288° West 356 410 14,000  Level Kansas City Center
10:36AM 37.7608 -98.3972 257° West 296 341 14,000  Level Kansas City Center
10:37AM 37.7414 -98.4692 251° West 212 244 14,000  Level Kansas City Center
10:38AM 37.7178 -98.5586 252° West 266 306 14,000  Level Kansas City Center
10:39AM 37.6853 -98.6797 251° West 348 400 14,000  Level Kansas City Center
10:40AM 37.6492 -98.8131 251° West 389 448 14,100  Climbing Kansas City Center
10:41AM 37.6164 -98.9381 252° West 382 440 14,100  Level Kansas City Center
10:42AM 37.5408 -99.0256 223° Southwest 411 473 14,100  Level Kansas City Center
10:43AM 37.4361 -98.9150 140° Southeast 440 506 14,100  Level Kansas City Center
10:45AM 37.4494 -98.7608 84° East 440 506 14,100 -60 Level Kansas City Center
10:46AM 37.4747 -98.6058 78° East 447 514 14,000 -600 Descending Kansas City Center
10:47AM 37.4978 -98.4561 79° East 445 512 12,900 -1,260 Descending Kansas City Center
10:48AM 37.5200 -98.3108 79° East 436 502 11,500 -1,500 Descending Kansas City Center
10:48AM 37.5289 -98.2494 80° East 424 488 10,900 -1,380 Descending Kansas City Center
10:49AM 37.5408 -98.1697 79° East 422 486 10,100 -660 Descending Kansas City Center
10:49AM 37.5550 -98.0769 79° East 315 362 10,000 -300 Descending Kansas City Center
10:50AM 37.5581 -98.0581 78° East 344 396 9,800 -1,740 Descending Kansas City Center
10:50AM 37.5711 -97.9769 78° East 277 319 8,300 -2,040 Descending Kansas City Center
10:51AM 37.5750 -97.9383 83° East 299 344 7,700 -1,620 Descending Kansas City Center
10:51AM 37.5872 -97.8794 75° East 283 326 6,700 -1,560 Descending Kansas City Center
10:52AM 37.5972 -97.8461 69° East 284 327 6,100 -1,740 Descending Kansas City Center
10:52AM 37.6103 -97.8128 64° Northeast 270 311 5,500 -1,620 Descending Kansas City Center
10:53AM 37.6289 -97.7617 65° Northeast 270 311 4,500 -1,080 Descending Kansas City Center
10:53AM 37.6556 -97.6925 64° Northeast 272 313 4,000 -540 Descending Kansas City Center
10:54AM 37.6617 -97.6747 67° East 273 314 4,000  Level Kansas City Center
10:54AM 37.6822 -97.6197 65° Northeast 277 319 4,000  Level Kansas City Center
10:55AM 37.6944 -97.5875 64° Northeast 275 316 4,000  Level Kansas City Center
10:55AM 37.7358 -97.5453 39° Northeast 256 295 4,000 60 Level Kansas City Center
10:56AM 37.7500 -97.5283 43° Northeast 269 310 4,100 -240 Climbing Kansas City Center
10:56AM 37.7536 -97.4658 86° East 248 285 3,800 -900 Descending Kansas City Center
10:57AM 37.7436 -97.4311 110° East 243 280 3,200 -1,020 Descending Kansas City Center
10:57AM 37.7217 -97.3994 131° Southeast 213 245 2,800 -720 Descending Kansas City Center
10:58AM 37.7019 -97.3961 172° South 213 245 2,500 -900 Descending Kansas City Center
10:58AM 37.6847 -97.4078 208° Southwest 133 153 2,000 -1,020 Descending Kansas City Center
10:59AM 37.6672 -97.4147 197° South 163 188 1,500 -900 Descending Kansas City Center